バルセロナ の空港の天気 - METARとTAF

バルセロナ・エル・プラット国際空港 ( LEBL / BCN ) - スペイン バルセロナ
飛行場実況気象(Metar)
観測時間08/18 15:30 CEST (08/18 13:30 UTC)
風向・風速南 3m/s
視程10km以上
天気現象
少しの雲 雲底高度 1070m
気温26℃
湿度48%
気圧1012hPa
METARLEBL 181330Z 19005KT 130V270 9999 FEW035 26/14 Q1012 NOSIG
過去の天気等 Google飛行場航空写真 Wunderground天気予報

過去48時間のMETAR

飛行場予報(TAF)
発表時間: 8/18 13:00 CEST (8/18 11:00 UTC)
予報対象時間: 18日14時 CEST ~ 19日14時 CEST
風向・風速南 4m/s
視程10km以上
少しの雲 雲底高度 910m
18日14時 CEST ~ 18日22時 CEST に 確率 40% で一時的に
風向・風速不定 8m/s
視程3000m
天気現象雷雨
少しの積乱雲 雲底高度 610m
18日14時 CEST ~ 18日22時 CEST に 確率 30% で一時的に
視程1500m
天気現象雷ひょう
全天の8割程度の雲 雲底高度 300m
全天の4割程度の積乱雲 雲底高度 610m
18日21時 CEST ~ 18日23時 CEST に徐々に
風向・風速北北西 5m/s
TAF LEBL 181100Z 1812/1912 18008KT 9999 FEW030 TX27/1812Z TN20/1906Z
PROB40 TEMPO 1812/1820 VRB15KT 3000 TSRA FEW020CB
PROB30 TEMPO 1812/1820 1500 TSGR BKN010 SCT020CB
BECMG 1819/1821 33009KT